logo
Rechercher aéroport 
image banner adimage banner adimage banner ad
image banner ad

CL65 - H B P D

Situé à Huntington Beach, United States

ICAO - CL65, IATA -

Données fournies par Airmate  

Information générale

Coordonnées: N33°41'43" W118°0'6"
Élévation : 56 feet MSL.
Variation magnétique : 14° East
Voir autres Aéroports à California

Données opérationnelles

Special qualification required
Heure actuelle UTC:
Heure actuelle locale:
Météo à : KSLI - Los Alamitos Aaf ( 11 km )
METAR: KSLI 011755Z 00000KT 10SM OVC024 21/15 A2989 RMK AO2A SLP121 T02090148 10209 20186
TAF: TAF KSLI 011300Z 0113/0219 VRB06KT 8000 BR SCT009 OVC017 QNH2985INS BECMG 0118/0119 VRB06KT 9999 NSW SCT017 SCT024 QNH2980INS BECMG 0208/0209 VRB06KT 9999 BKN017 OVC024 QNH2988INS BECMG 0217/0218 VRB06KT 9000 BR FEW010 SCT018 QNH2995INS TX23/0123Z TN17/0114Z
Voir NOTAMs / SUP AIP / TFR affectant cet aéroport [VIEW]
Fréquences de communication: [VIEW]

Pistes:

Coordonnées de l'aéroport

Adresse: Huntington Beach United States

Vue satellite de CL65